sensor_id;sensor_type;location;lat;lon;timestamp;P1;durP1;ratioP1;P2;durP2;ratioP2
36221;SDS011;22266;52.340;4.962;2022-11-04T00:01:52;0.00;;;0.00;;
36221;SDS011;22266;52.340;4.962;2022-11-04T00:04:20;0.00;;;0.00;;
36221;SDS011;22266;52.340;4.962;2022-11-04T00:06:47;1.00;;;1.00;;
36221;SDS011;22266;52.340;4.962;2022-11-04T00:09:17;1.00;;;0.00;;
36221;SDS011;22266;52.340;4.962;2022-11-04T00:11:46;0.00;;;0.00;;
36221;SDS011;22266;52.340;4.962;2022-11-04T00:14:32;0.00;;;0.00;;
36221;SDS011;22266;52.340;4.962;2022-11-04T00:17:00;0.25;;;0.25;;
36221;SDS011;22266;52.340;4.962;2022-11-04T00:19:45;0.25;;;0.00;;
36221;SDS011;22266;52.340;4.962;2022-11-04T00:22:31;1.50;;;0.00;;
36221;SDS011;22266;52.340;4.962;2022-11-04T00:25:16;0.00;;;0.00;;
36221;SDS011;22266;52.340;4.962;2022-11-04T00:28:09;0.75;;;0.00;;
36221;SDS011;22266;52.340;4.962;2022-11-04T00:31:00;0.00;;;0.00;;
36221;SDS011;22266;52.340;4.962;2022-11-04T00:33:48;0.00;;;0.00;;
36221;SDS011;22266;52.340;4.962;2022-11-04T00:36:16;0.00;;;0.00;;
36221;SDS011;22266;52.340;4.962;2022-11-04T00:38:43;0.00;;;0.00;;
36221;SDS011;22266;52.340;4.962;2022-11-04T00:41:09;1.50;;;0.00;;
36221;SDS011;22266;52.340;4.962;2022-11-04T00:43:55;0.50;;;0.50;;
36221;SDS011;22266;52.340;4.962;2022-11-04T00:46:26;0.00;;;0.00;;
36221;SDS011;22266;52.340;4.962;2022-11-04T00:48:54;1.00;;;0.00;;
36221;SDS011;22266;52.340;4.962;2022-11-04T00:51:21;0.00;;;0.00;;
36221;SDS011;22266;52.340;4.962;2022-11-04T00:53:47;0.00;;;0.00;;
36221;SDS011;22266;52.340;4.962;2022-11-04T00:56:14;0.75;;;0.75;;
36221;SDS011;22266;52.340;4.962;2022-11-04T00:58:40;0.00;;;0.00;;
36221;SDS011;22266;52.340;4.962;2022-11-04T01:01:10;0.00;;;0.00;;
36221;SDS011;22266;52.340;4.962;2022-11-04T01:03:39;0.00;;;0.00;;
36221;SDS011;22266;52.340;4.962;2022-11-04T01:06:05;0.00;;;0.00;;
36221;SDS011;22266;52.340;4.962;2022-11-04T01:08:31;0.50;;;0.00;;
36221;SDS011;22266;52.340;4.962;2022-11-04T01:11:01;0.00;;;0.00;;
36221;SDS011;22266;52.340;4.962;2022-11-04T01:13:29;0.00;;;0.00;;
36221;SDS011;22266;52.340;4.962;2022-11-04T01:15:59;1.00;;;0.00;;
36221;SDS011;22266;52.340;4.962;2022-11-04T01:18:26;0.00;;;0.00;;
36221;SDS011;22266;52.340;4.962;2022-11-04T01:20:53;0.00;;;0.00;;
36221;SDS011;22266;52.340;4.962;2022-11-04T01:23:20;0.50;;;0.00;;
36221;SDS011;22266;52.340;4.962;2022-11-04T01:25:46;0.00;;;0.00;;
36221;SDS011;22266;52.340;4.962;2022-11-04T01:28:13;0.00;;;0.00;;
36221;SDS011;22266;52.340;4.962;2022-11-04T01:30:39;1.00;;;0.00;;
36221;SDS011;22266;52.340;4.962;2022-11-04T01:33:06;0.00;;;0.00;;
36221;SDS011;22266;52.340;4.962;2022-11-04T01:35:32;0.00;;;0.00;;
36221;SDS011;22266;52.340;4.962;2022-11-04T01:37:58;1.00;;;0.00;;
36221;SDS011;22266;52.340;4.962;2022-11-04T01:40:25;0.00;;;0.00;;
36221;SDS011;22266;52.340;4.962;2022-11-04T01:42:52;0.00;;;0.00;;
36221;SDS011;22266;52.340;4.962;2022-11-04T01:45:18;0.00;;;0.00;;
36221;SDS011;22266;52.340;4.962;2022-11-04T01:47:48;0.00;;;0.00;;
36221;SDS011;22266;52.340;4.962;2022-11-04T01:50:28;0.00;;;0.00;;
36221;SDS011;22266;52.340;4.962;2022-11-04T01:55:33;0.00;;;0.00;;
36221;SDS011;22266;52.340;4.962;2022-11-04T01:58:07;0.00;;;0.00;;
36221;SDS011;22266;52.340;4.962;2022-11-04T02:00:37;1.75;;;0.00;;
36221;SDS011;22266;52.340;4.962;2022-11-04T02:03:05;0.00;;;0.00;;
36221;SDS011;22266;52.340;4.962;2022-11-04T02:05:36;0.00;;;0.00;;
36221;SDS011;22266;52.340;4.962;2022-11-04T02:08:04;0.00;;;0.00;;
36221;SDS011;22266;52.340;4.962;2022-11-04T02:10:33;0.00;;;0.00;;
36221;SDS011;22266;52.340;4.962;2022-11-04T02:13:00;0.00;;;0.00;;
36221;SDS011;22266;52.340;4.962;2022-11-04T02:15:49;0.25;;;0.00;;
36221;SDS011;22266;52.340;4.962;2022-11-04T02:18:31;0.00;;;0.00;;
36221;SDS011;22266;52.340;4.962;2022-11-04T02:29:10;0.00;;;0.00;;
36221;SDS011;22266;52.340;4.962;2022-11-04T02:32:02;0.00;;;0.00;;
36221;SDS011;22266;52.340;4.962;2022-11-04T02:37:19;0.00;;;0.00;;
36221;SDS011;22266;52.340;4.962;2022-11-04T02:40:13;1.00;;;0.00;;
36221;SDS011;22266;52.340;4.962;2022-11-04T02:43:02;0.00;;;0.00;;
36221;SDS011;22266;52.340;4.962;2022-11-04T02:45:39;0.00;;;0.00;;
36221;SDS011;22266;52.340;4.962;2022-11-04T02:50:49;0.00;;;0.00;;
36221;SDS011;22266;52.340;4.962;2022-11-04T02:53:26;0.00;;;0.00;;
36221;SDS011;22266;52.340;4.962;2022-11-04T02:55:58;0.00;;;0.00;;
36221;SDS011;22266;52.340;4.962;2022-11-04T02:58:32;0.00;;;0.00;;
36221;SDS011;22266;52.340;4.962;2022-11-04T03:01:03;0.00;;;0.00;;
36221;SDS011;22266;52.340;4.962;2022-11-04T03:03:34;0.00;;;0.00;;
36221;SDS011;22266;52.340;4.962;2022-11-04T03:06:07;0.00;;;0.00;;
36221;SDS011;22266;52.340;4.962;2022-11-04T03:08:38;0.50;;;0.50;;
36221;SDS011;22266;52.340;4.962;2022-11-04T03:11:19;0.00;;;0.00;;
36221;SDS011;22266;52.340;4.962;2022-11-04T03:13:49;0.00;;;0.00;;
36221;SDS011;22266;52.340;4.962;2022-11-04T03:16:30;0.00;;;0.00;;
36221;SDS011;22266;52.340;4.962;2022-11-04T03:19:20;0.00;;;0.00;;
36221;SDS011;22266;52.340;4.962;2022-11-04T03:21:56;0.00;;;0.00;;
36221;SDS011;22266;52.340;4.962;2022-11-04T03:24:27;0.00;;;0.00;;
36221;SDS011;22266;52.340;4.962;2022-11-04T03:26:58;0.00;;;0.00;;
36221;SDS011;22266;52.340;4.962;2022-11-04T03:29:34;0.00;;;0.00;;
36221;SDS011;22266;52.340;4.962;2022-11-04T03:34:50;0.75;;;0.00;;
36221;SDS011;22266;52.340;4.962;2022-11-04T03:37:17;0.00;;;0.00;;
36221;SDS011;22266;52.340;4.962;2022-11-04T03:39:43;0.00;;;0.00;;
36221;SDS011;22266;52.340;4.962;2022-11-04T03:42:10;0.00;;;0.00;;
36221;SDS011;22266;52.340;4.962;2022-11-04T03:44:47;0.00;;;0.00;;
36221;SDS011;22266;52.340;4.962;2022-11-04T03:47:15;0.00;;;0.00;;
36221;SDS011;22266;52.340;4.962;2022-11-04T03:49:44;0.00;;;0.00;;
36221;SDS011;22266;52.340;4.962;2022-11-04T03:52:12;0.00;;;0.00;;
36221;SDS011;22266;52.340;4.962;2022-11-04T03:54:39;0.00;;;0.00;;
36221;SDS011;22266;52.340;4.962;2022-11-04T03:57:10;1.00;;;0.00;;
36221;SDS011;22266;52.340;4.962;2022-11-04T04:08:15;0.00;;;0.00;;
36221;SDS011;22266;52.340;4.962;2022-11-04T04:13:36;0.00;;;0.00;;
36221;SDS011;22266;52.340;4.962;2022-11-04T04:16:17;1.00;;;0.00;;
36221;SDS011;22266;52.340;4.962;2022-11-04T04:18:53;0.25;;;0.00;;
36221;SDS011;22266;52.340;4.962;2022-11-04T04:21:26;0.00;;;0.00;;
36221;SDS011;22266;52.340;4.962;2022-11-04T04:23:58;0.25;;;0.00;;
36221;SDS011;22266;52.340;4.962;2022-11-04T04:26:47;0.25;;;0.00;;
36221;SDS011;22266;52.340;4.962;2022-11-04T04:29:33;0.00;;;0.00;;
36221;SDS011;22266;52.340;4.962;2022-11-04T04:32:02;0.00;;;0.00;;
36221;SDS011;22266;52.340;4.962;2022-11-04T04:34:31;0.00;;;0.00;;
36221;SDS011;22266;52.340;4.962;2022-11-04T04:37:02;0.50;;;0.00;;
36221;SDS011;22266;52.340;4.962;2022-11-04T04:42:30;0.00;;;0.00;;
36221;SDS011;22266;52.340;4.962;2022-11-04T04:45:20;0.75;;;0.00;;
36221;SDS011;22266;52.340;4.962;2022-11-04T04:47:48;0.00;;;0.00;;
36221;SDS011;22266;52.340;4.962;2022-11-04T04:50:16;0.00;;;0.00;;
36221;SDS011;22266;52.340;4.962;2022-11-04T04:52:45;0.00;;;0.00;;
36221;SDS011;22266;52.340;4.962;2022-11-04T04:55:13;0.00;;;0.00;;
36221;SDS011;22266;52.340;4.962;2022-11-04T04:57:40;1.75;;;0.00;;
36221;SDS011;22266;52.340;4.962;2022-11-04T05:00:08;0.00;;;0.00;;
36221;SDS011;22266;52.340;4.962;2022-11-04T05:02:38;0.00;;;0.00;;
36221;SDS011;22266;52.340;4.962;2022-11-04T05:05:05;0.00;;;0.00;;
36221;SDS011;22266;52.340;4.962;2022-11-04T05:07:32;1.00;;;0.00;;
36221;SDS011;22266;52.340;4.962;2022-11-04T05:09:58;0.00;;;0.00;;
36221;SDS011;22266;52.340;4.962;2022-11-04T05:12:24;0.00;;;0.00;;
36221;SDS011;22266;52.340;4.962;2022-11-04T05:15:11;0.00;;;0.00;;
36221;SDS011;22266;52.340;4.962;2022-11-04T05:17:38;1.50;;;1.00;;
36221;SDS011;22266;52.340;4.962;2022-11-04T05:20:04;0.00;;;0.00;;
36221;SDS011;22266;52.340;4.962;2022-11-04T05:22:31;0.00;;;0.00;;
36221;SDS011;22266;52.340;4.962;2022-11-04T05:24:57;0.00;;;0.00;;
36221;SDS011;22266;52.340;4.962;2022-11-04T05:27:23;0.00;;;0.00;;
36221;SDS011;22266;52.340;4.962;2022-11-04T05:29:50;1.25;;;1.25;;
36221;SDS011;22266;52.340;4.962;2022-11-04T05:32:16;1.00;;;0.75;;
36221;SDS011;22266;52.340;4.962;2022-11-04T05:34:43;0.00;;;0.00;;
36221;SDS011;22266;52.340;4.962;2022-11-04T05:37:09;0.00;;;0.00;;
36221;SDS011;22266;52.340;4.962;2022-11-04T05:39:35;0.00;;;0.00;;
36221;SDS011;22266;52.340;4.962;2022-11-04T05:42:02;0.00;;;0.00;;
36221;SDS011;22266;52.340;4.962;2022-11-04T05:44:28;1.75;;;1.00;;
36221;SDS011;22266;52.340;4.962;2022-11-04T05:46:55;0.00;;;0.00;;
36221;SDS011;22266;52.340;4.962;2022-11-04T05:49:21;1.25;;;0.75;;
36221;SDS011;22266;52.340;4.962;2022-11-04T05:51:47;0.00;;;0.00;;
36221;SDS011;22266;52.340;4.962;2022-11-04T05:54:14;0.00;;;0.00;;
36221;SDS011;22266;52.340;4.962;2022-11-04T05:56:40;0.00;;;0.00;;
36221;SDS011;22266;52.340;4.962;2022-11-04T05:59:07;0.00;;;0.00;;
36221;SDS011;22266;52.340;4.962;2022-11-04T06:01:37;3.50;;;1.00;;
36221;SDS011;22266;52.340;4.962;2022-11-04T06:04:12;6.50;;;3.00;;
36221;SDS011;22266;52.340;4.962;2022-11-04T06:06:41;5.00;;;3.50;;
36221;SDS011;22266;52.340;4.962;2022-11-04T06:09:08;9.00;;;7.25;;
36221;SDS011;22266;52.340;4.962;2022-11-04T06:11:35;8.50;;;6.50;;
36221;SDS011;22266;52.340;4.962;2022-11-04T06:14:03;6.00;;;6.00;;
36221;SDS011;22266;52.340;4.962;2022-11-04T06:16:30;6.25;;;6.25;;
36221;SDS011;22266;52.340;4.962;2022-11-04T06:18:56;11.00;;;11.00;;
36221;SDS011;22266;52.340;4.962;2022-11-04T06:21:31;9.75;;;7.00;;
36221;SDS011;22266;52.340;4.962;2022-11-04T06:23:58;9.25;;;8.00;;
36221;SDS011;22266;52.340;4.962;2022-11-04T06:26:25;12.50;;;12.50;;
36221;SDS011;22266;52.340;4.962;2022-11-04T06:28:53;10.75;;;10.00;;
36221;SDS011;22266;52.340;4.962;2022-11-04T06:31:20;11.25;;;10.50;;
36221;SDS011;22266;52.340;4.962;2022-11-04T06:33:46;11.25;;;9.25;;
36221;SDS011;22266;52.340;4.962;2022-11-04T06:36:14;18.25;;;13.50;;
36221;SDS011;22266;52.340;4.962;2022-11-04T06:38:41;15.00;;;12.50;;
36221;SDS011;22266;52.340;4.962;2022-11-04T06:41:10;14.50;;;14.50;;
36221;SDS011;22266;52.340;4.962;2022-11-04T06:43:38;13.50;;;13.50;;
36221;SDS011;22266;52.340;4.962;2022-11-04T06:46:06;14.25;;;12.75;;
36221;SDS011;22266;52.340;4.962;2022-11-04T06:48:54;15.50;;;14.00;;
36221;SDS011;22266;52.340;4.962;2022-11-04T06:51:22;23.25;;;17.25;;
36221;SDS011;22266;52.340;4.962;2022-11-04T06:53:49;15.00;;;15.00;;
36221;SDS011;22266;52.340;4.962;2022-11-04T06:56:16;18.50;;;17.50;;
36221;SDS011;22266;52.340;4.962;2022-11-04T06:58:45;18.00;;;16.00;;
36221;SDS011;22266;52.340;4.962;2022-11-04T07:01:12;23.50;;;20.00;;
36221;SDS011;22266;52.340;4.962;2022-11-04T07:03:50;20.00;;;18.50;;
36221;SDS011;22266;52.340;4.962;2022-11-04T07:06:18;17.25;;;16.25;;
36221;SDS011;22266;52.340;4.962;2022-11-04T07:08:46;22.75;;;18.25;;
36221;SDS011;22266;52.340;4.962;2022-11-04T07:11:14;23.75;;;21.75;;
36221;SDS011;22266;52.340;4.962;2022-11-04T07:13:42;22.00;;;18.75;;
36221;SDS011;22266;52.340;4.962;2022-11-04T07:16:08;37.75;;;31.25;;
36221;SDS011;22266;52.340;4.962;2022-11-04T07:18:35;13.50;;;13.00;;
36221;SDS011;22266;52.340;4.962;2022-11-04T07:21:02;19.50;;;16.50;;
36221;SDS011;22266;52.340;4.962;2022-11-04T07:23:35;26.00;;;25.25;;
36221;SDS011;22266;52.340;4.962;2022-11-04T07:26:02;18.00;;;17.50;;
36221;SDS011;22266;52.340;4.962;2022-11-04T07:28:30;24.75;;;20.50;;
36221;SDS011;22266;52.340;4.962;2022-11-04T07:31:00;21.50;;;19.00;;
36221;SDS011;22266;52.340;4.962;2022-11-04T07:33:27;29.50;;;23.50;;
36221;SDS011;22266;52.340;4.962;2022-11-04T07:35:54;23.00;;;21.00;;
36221;SDS011;22266;52.340;4.962;2022-11-04T07:38:23;22.75;;;16.00;;
36221;SDS011;22266;52.340;4.962;2022-11-04T07:40:50;18.25;;;16.25;;
36221;SDS011;22266;52.340;4.962;2022-11-04T07:43:17;18.75;;;17.50;;
36221;SDS011;22266;52.340;4.962;2022-11-04T07:45:44;27.00;;;17.75;;
36221;SDS011;22266;52.340;4.962;2022-11-04T07:48:10;16.50;;;15.00;;
36221;SDS011;22266;52.340;4.962;2022-11-04T07:50:38;16.25;;;14.50;;
36221;SDS011;22266;52.340;4.962;2022-11-04T07:53:05;15.00;;;10.25;;
36221;SDS011;22266;52.340;4.962;2022-11-04T07:55:35;14.00;;;14.00;;
36221;SDS011;22266;52.340;4.962;2022-11-04T07:58:08;18.50;;;14.50;;
36221;SDS011;22266;52.340;4.962;2022-11-04T08:00:35;23.25;;;18.75;;
36221;SDS011;22266;52.340;4.962;2022-11-04T08:03:02;17.75;;;12.00;;
36221;SDS011;22266;52.340;4.962;2022-11-04T08:05:28;18.00;;;17.00;;
36221;SDS011;22266;52.340;4.962;2022-11-04T08:07:55;23.00;;;16.50;;
36221;SDS011;22266;52.340;4.962;2022-11-04T08:10:22;16.50;;;10.50;;
36221;SDS011;22266;52.340;4.962;2022-11-04T08:12:49;13.00;;;13.00;;
36221;SDS011;22266;52.340;4.962;2022-11-04T08:15:16;14.00;;;11.50;;
36221;SDS011;22266;52.340;4.962;2022-11-04T08:17:43;14.75;;;14.50;;
36221;SDS011;22266;52.340;4.962;2022-11-04T08:20:09;22.25;;;21.75;;
36221;SDS011;22266;52.340;4.962;2022-11-04T08:22:37;19.75;;;15.00;;
36221;SDS011;22266;52.340;4.962;2022-11-04T08:25:04;16.25;;;15.00;;
36221;SDS011;22266;52.340;4.962;2022-11-04T08:27:31;18.25;;;12.75;;
36221;SDS011;22266;52.340;4.962;2022-11-04T08:29:57;14.25;;;14.25;;
36221;SDS011;22266;52.340;4.962;2022-11-04T08:32:24;22.50;;;18.50;;
36221;SDS011;22266;52.340;4.962;2022-11-04T08:34:50;16.75;;;16.00;;
36221;SDS011;22266;52.340;4.962;2022-11-04T08:37:17;17.50;;;14.25;;
36221;SDS011;22266;52.340;4.962;2022-11-04T08:39:43;17.25;;;14.75;;
36221;SDS011;22266;52.340;4.962;2022-11-04T08:42:09;15.50;;;15.25;;
36221;SDS011;22266;52.340;4.962;2022-11-04T08:44:36;21.75;;;18.25;;
36221;SDS011;22266;52.340;4.962;2022-11-04T08:47:04;15.75;;;15.00;;
36221;SDS011;22266;52.340;4.962;2022-11-04T08:49:35;20.50;;;13.50;;
36221;SDS011;22266;52.340;4.962;2022-11-04T08:52:03;20.50;;;18.25;;
36221;SDS011;22266;52.340;4.962;2022-11-04T08:54:29;16.50;;;16.00;;
36221;SDS011;22266;52.340;4.962;2022-11-04T08:56:56;15.50;;;12.50;;
36221;SDS011;22266;52.340;4.962;2022-11-04T08:59:23;20.00;;;17.75;;
36221;SDS011;22266;52.340;4.962;2022-11-04T09:01:50;18.75;;;16.25;;
36221;SDS011;22266;52.340;4.962;2022-11-04T09:04:16;15.50;;;13.75;;
36221;SDS011;22266;52.340;4.962;2022-11-04T09:06:44;16.75;;;15.00;;
36221;SDS011;22266;52.340;4.962;2022-11-04T09:09:12;14.25;;;12.75;;
36221;SDS011;22266;52.340;4.962;2022-11-04T09:11:41;14.75;;;14.75;;
36221;SDS011;22266;52.340;4.962;2022-11-04T09:14:08;18.00;;;16.00;;
36221;SDS011;22266;52.340;4.962;2022-11-04T09:16:36;14.50;;;14.50;;
36221;SDS011;22266;52.340;4.962;2022-11-04T09:19:03;19.50;;;18.25;;
36221;SDS011;22266;52.340;4.962;2022-11-04T09:21:30;15.00;;;15.00;;
36221;SDS011;22266;52.340;4.962;2022-11-04T09:23:56;15.00;;;14.00;;
36221;SDS011;22266;52.340;4.962;2022-11-04T09:26:23;9.50;;;9.00;;
36221;SDS011;22266;52.340;4.962;2022-11-04T09:28:54;23.00;;;16.25;;
36221;SDS011;22266;52.340;4.962;2022-11-04T09:31:22;15.00;;;12.50;;
36221;SDS011;22266;52.340;4.962;2022-11-04T09:33:49;13.75;;;12.00;;
36221;SDS011;22266;52.340;4.962;2022-11-04T09:36:16;15.50;;;13.00;;
36221;SDS011;22266;52.340;4.962;2022-11-04T09:38:42;14.00;;;14.00;;
36221;SDS011;22266;52.340;4.962;2022-11-04T09:46:39;11.25;;;11.00;;
36221;SDS011;22266;52.340;4.962;2022-11-04T09:49:07;15.75;;;13.00;;
36221;SDS011;22266;52.340;4.962;2022-11-04T09:51:37;16.00;;;16.00;;
36221;SDS011;22266;52.340;4.962;2022-11-04T09:54:24;9.50;;;9.50;;
36221;SDS011;22266;52.340;4.962;2022-11-04T09:56:57;11.50;;;9.75;;
36221;SDS011;22266;52.340;4.962;2022-11-04T09:59:29;15.25;;;15.25;;
36221;SDS011;22266;52.340;4.962;2022-11-04T10:02:07;9.75;;;8.75;;
36221;SDS011;22266;52.340;4.962;2022-11-04T10:04:52;12.75;;;12.75;;
36221;SDS011;22266;52.340;4.962;2022-11-04T10:10:33;11.75;;;8.25;;
36221;SDS011;22266;52.340;4.962;2022-11-04T10:13:26;11.00;;;11.00;;
36221;SDS011;22266;52.340;4.962;2022-11-04T10:16:15;12.75;;;11.50;;
36221;SDS011;22266;52.340;4.962;2022-11-04T10:24:36;4.75;;;4.75;;
36221;SDS011;22266;52.340;4.962;2022-11-04T10:27:09;8.00;;;8.00;;
36221;SDS011;22266;52.340;4.962;2022-11-04T10:29:44;9.50;;;7.75;;
36221;SDS011;22266;52.340;4.962;2022-11-04T10:32:15;8.25;;;8.25;;
36221;SDS011;22266;52.340;4.962;2022-11-04T10:35:05;9.50;;;9.50;;
36221;SDS011;22266;52.340;4.962;2022-11-04T10:37:44;10.75;;;9.25;;
36221;SDS011;22266;52.340;4.962;2022-11-04T10:40:19;8.75;;;8.50;;
36221;SDS011;22266;52.340;4.962;2022-11-04T10:42:50;9.00;;;9.00;;
36221;SDS011;22266;52.340;4.962;2022-11-04T10:45:19;10.00;;;8.00;;
36221;SDS011;22266;52.340;4.962;2022-11-04T10:47:55;8.00;;;8.00;;
36221;SDS011;22266;52.340;4.962;2022-11-04T10:50:35;6.50;;;6.50;;
36221;SDS011;22266;52.340;4.962;2022-11-04T10:53:18;8.00;;;7.25;;
36221;SDS011;22266;52.340;4.962;2022-11-04T10:56:10;9.75;;;8.50;;
36221;SDS011;22266;52.340;4.962;2022-11-04T10:58:59;8.25;;;8.25;;
36221;SDS011;22266;52.340;4.962;2022-11-04T11:01:48;5.00;;;5.00;;
36221;SDS011;22266;52.340;4.962;2022-11-04T11:04:30;4.50;;;4.50;;
36221;SDS011;22266;52.340;4.962;2022-11-04T11:07:02;6.50;;;5.25;;
36221;SDS011;22266;52.340;4.962;2022-11-04T11:14:58;6.00;;;6.00;;
36221;SDS011;22266;52.340;4.962;2022-11-04T11:17:34;4.50;;;4.50;;
36221;SDS011;22266;52.340;4.962;2022-11-04T11:22:40;5.50;;;5.50;;
36221;SDS011;22266;52.340;4.962;2022-11-04T11:25:19;6.75;;;5.00;;
36221;SDS011;22266;52.340;4.962;2022-11-04T11:27:47;4.25;;;4.25;;
36221;SDS011;22266;52.340;4.962;2022-11-04T11:30:23;4.25;;;4.25;;
36221;SDS011;22266;52.340;4.962;2022-11-04T11:32:51;4.75;;;4.75;;
36221;SDS011;22266;52.340;4.962;2022-11-04T11:35:28;6.50;;;6.00;;
36221;SDS011;22266;52.340;4.962;2022-11-04T11:37:58;9.00;;;6.00;;
36221;SDS011;22266;52.340;4.962;2022-11-04T11:40:29;4.00;;;3.50;;
36221;SDS011;22266;52.340;4.962;2022-11-04T11:43:27;4.25;;;4.25;;
36221;SDS011;22266;52.340;4.962;2022-11-04T11:45:56;6.00;;;5.00;;
36221;SDS011;22266;52.340;4.962;2022-11-04T11:48:28;6.00;;;6.00;;
36221;SDS011;22266;52.340;4.962;2022-11-04T11:51:21;6.00;;;6.00;;
36221;SDS011;22266;52.340;4.962;2022-11-04T11:54:12;5.50;;;5.50;;
36221;SDS011;22266;52.340;4.962;2022-11-04T11:56:52;5.25;;;5.25;;
36221;SDS011;22266;52.340;4.962;2022-11-04T11:59:44;8.75;;;6.50;;
36221;SDS011;22266;52.340;4.962;2022-11-04T12:02:54;5.50;;;5.00;;
36221;SDS011;22266;52.340;4.962;2022-11-04T12:05:32;5.50;;;5.50;;
36221;SDS011;22266;52.340;4.962;2022-11-04T12:22:29;1.00;;;1.00;;
36221;SDS011;22266;52.340;4.962;2022-11-04T12:25:50;0.00;;;0.00;;
36221;SDS011;22266;52.340;4.962;2022-11-04T12:28:09;1.50;;;1.50;;
36221;SDS011;22266;52.340;4.962;2022-11-04T12:39:20;1.00;;;1.00;;
36221;SDS011;22266;52.340;4.962;2022-11-04T12:44:52;0.00;;;0.00;;
36221;SDS011;22266;52.340;4.962;2022-11-04T12:47:42;0.00;;;0.00;;
36221;SDS011;22266;52.340;4.962;2022-11-04T12:50:27;1.00;;;0.00;;
36221;SDS011;22266;52.340;4.962;2022-11-04T12:53:14;0.50;;;0.50;;
36221;SDS011;22266;52.340;4.962;2022-11-04T12:56:09;0.00;;;0.00;;
36221;SDS011;22266;52.340;4.962;2022-11-04T13:01:30;0.00;;;0.00;;
36221;SDS011;22266;52.340;4.962;2022-11-04T13:04:08;0.50;;;0.00;;
36221;SDS011;22266;52.340;4.962;2022-11-04T13:09:30;0.75;;;0.75;;
36221;SDS011;22266;52.340;4.962;2022-11-04T13:12:15;1.00;;;1.00;;
36221;SDS011;22266;52.340;4.962;2022-11-04T13:14:47;1.00;;;1.00;;
36221;SDS011;22266;52.340;4.962;2022-11-04T13:17:19;1.50;;;0.00;;
36221;SDS011;22266;52.340;4.962;2022-11-04T13:19:52;0.00;;;0.00;;
36221;SDS011;22266;52.340;4.962;2022-11-04T13:22:22;0.00;;;0.00;;
36221;SDS011;22266;52.340;4.962;2022-11-04T13:24:59;0.00;;;0.00;;
36221;SDS011;22266;52.340;4.962;2022-11-04T13:27:31;0.00;;;0.00;;
36221;SDS011;22266;52.340;4.962;2022-11-04T13:32:52;0.00;;;0.00;;
36221;SDS011;22266;52.340;4.962;2022-11-04T13:35:37;1.00;;;1.00;;
36221;SDS011;22266;52.340;4.962;2022-11-04T13:38:18;0.00;;;0.00;;
36221;SDS011;22266;52.340;4.962;2022-11-04T13:46:05;0.00;;;0.00;;
36221;SDS011;22266;52.340;4.962;2022-11-04T13:48:54;1.00;;;0.00;;
36221;SDS011;22266;52.340;4.962;2022-11-04T13:51:35;0.00;;;0.00;;
36221;SDS011;22266;52.340;4.962;2022-11-04T13:54:03;0.00;;;0.00;;
36221;SDS011;22266;52.340;4.962;2022-11-04T13:59:22;0.00;;;0.00;;
36221;SDS011;22266;52.340;4.962;2022-11-04T14:01:47;0.00;;;0.00;;
36221;SDS011;22266;52.340;4.962;2022-11-04T14:04:30;0.50;;;0.50;;
36221;SDS011;22266;52.340;4.962;2022-11-04T14:07:01;0.00;;;0.00;;
36221;SDS011;22266;52.340;4.962;2022-11-04T14:14:35;1.75;;;1.75;;
36221;SDS011;22266;52.340;4.962;2022-11-04T14:17:03;0.00;;;0.00;;
36221;SDS011;22266;52.340;4.962;2022-11-04T14:19:57;1.50;;;0.00;;
36221;SDS011;22266;52.340;4.962;2022-11-04T14:30:32;0.00;;;0.00;;
36221;SDS011;22266;52.340;4.962;2022-11-04T14:38:54;0.00;;;0.00;;
36221;SDS011;22266;52.340;4.962;2022-11-04T14:43:54;1.00;;;1.00;;
36221;SDS011;22266;52.340;4.962;2022-11-04T14:46:24;2.50;;;1.00;;
36221;SDS011;22266;52.340;4.962;2022-11-04T14:48:54;0.00;;;0.00;;
36221;SDS011;22266;52.340;4.962;2022-11-04T14:51:29;0.00;;;0.00;;
36221;SDS011;22266;52.340;4.962;2022-11-04T14:54:09;1.00;;;1.00;;
36221;SDS011;22266;52.340;4.962;2022-11-04T14:56:45;0.00;;;0.00;;
36221;SDS011;22266;52.340;4.962;2022-11-04T14:59:25;0.00;;;0.00;;
36221;SDS011;22266;52.340;4.962;2022-11-04T15:01:52;0.00;;;0.00;;
36221;SDS011;22266;52.340;4.962;2022-11-04T15:04:22;1.00;;;1.00;;
36221;SDS011;22266;52.340;4.962;2022-11-04T15:06:55;0.00;;;0.00;;
36221;SDS011;22266;52.340;4.962;2022-11-04T15:09:23;0.00;;;0.00;;
36221;SDS011;22266;52.340;4.962;2022-11-04T15:11:57;5.00;;;1.00;;
36221;SDS011;22266;52.340;4.962;2022-11-04T15:14:49;0.50;;;0.00;;
36221;SDS011;22266;52.340;4.962;2022-11-04T15:17:18;0.25;;;0.25;;
36221;SDS011;22266;52.340;4.962;2022-11-04T15:19:52;0.75;;;0.75;;
36221;SDS011;22266;52.340;4.962;2022-11-04T15:22:22;0.00;;;0.00;;
36221;SDS011;22266;52.340;4.962;2022-11-04T15:24:49;0.00;;;0.00;;
36221;SDS011;22266;52.340;4.962;2022-11-04T15:27:16;1.75;;;1.00;;
36221;SDS011;22266;52.340;4.962;2022-11-04T15:32:21;1.00;;;1.00;;
36221;SDS011;22266;52.340;4.962;2022-11-04T15:34:49;1.00;;;1.00;;
36221;SDS011;22266;52.340;4.962;2022-11-04T15:37:16;0.25;;;0.25;;
36221;SDS011;22266;52.340;4.962;2022-11-04T15:39:48;0.75;;;0.75;;
36221;SDS011;22266;52.340;4.962;2022-11-04T15:42:18;1.00;;;1.00;;
36221;SDS011;22266;52.340;4.962;2022-11-04T15:47:47;1.00;;;1.00;;
36221;SDS011;22266;52.340;4.962;2022-11-04T15:50:18;1.25;;;1.25;;
36221;SDS011;22266;52.340;4.962;2022-11-04T15:52:49;0.00;;;0.00;;
36221;SDS011;22266;52.340;4.962;2022-11-04T15:55:19;0.00;;;0.00;;
36221;SDS011;22266;52.340;4.962;2022-11-04T15:57:47;1.75;;;1.00;;
36221;SDS011;22266;52.340;4.962;2022-11-04T16:02:48;1.00;;;0.00;;
36221;SDS011;22266;52.340;4.962;2022-11-04T16:07:45;4.75;;;4.75;;
36221;SDS011;22266;52.340;4.962;2022-11-04T16:13:00;4.25;;;4.25;;
36221;SDS011;22266;52.340;4.962;2022-11-04T16:16:03;5.00;;;5.00;;
36221;SDS011;22266;52.340;4.962;2022-11-04T16:18:39;4.50;;;4.00;;
36221;SDS011;22266;52.340;4.962;2022-11-04T16:21:10;7.00;;;7.00;;
36221;SDS011;22266;52.340;4.962;2022-11-04T16:23:48;7.50;;;7.25;;
36221;SDS011;22266;52.340;4.962;2022-11-04T16:26:22;6.75;;;6.50;;
36221;SDS011;22266;52.340;4.962;2022-11-04T16:28:54;4.50;;;4.50;;
36221;SDS011;22266;52.340;4.962;2022-11-04T16:31:27;6.00;;;6.00;;
36221;SDS011;22266;52.340;4.962;2022-11-04T16:33:58;5.25;;;5.00;;
36221;SDS011;22266;52.340;4.962;2022-11-04T16:36:25;6.00;;;5.75;;
36221;SDS011;22266;52.340;4.962;2022-11-04T16:39:00;7.00;;;5.50;;
36221;SDS011;22266;52.340;4.962;2022-11-04T16:41:31;6.75;;;6.00;;
36221;SDS011;22266;52.340;4.962;2022-11-04T16:44:01;5.25;;;5.25;;
36221;SDS011;22266;52.340;4.962;2022-11-04T16:46:30;8.75;;;7.00;;
36221;SDS011;22266;52.340;4.962;2022-11-04T16:48:58;9.50;;;7.75;;
36221;SDS011;22266;52.340;4.962;2022-11-04T16:51:25;11.50;;;10.75;;
36221;SDS011;22266;52.340;4.962;2022-11-04T16:53:52;11.75;;;10.75;;
36221;SDS011;22266;52.340;4.962;2022-11-04T16:56:20;6.50;;;6.25;;
36221;SDS011;22266;52.340;4.962;2022-11-04T16:58:49;7.25;;;6.00;;
36221;SDS011;22266;52.340;4.962;2022-11-04T17:01:16;9.75;;;6.50;;
36221;SDS011;22266;52.340;4.962;2022-11-04T17:03:44;8.75;;;8.00;;
36221;SDS011;22266;52.340;4.962;2022-11-04T17:06:11;8.75;;;8.75;;
36221;SDS011;22266;52.340;4.962;2022-11-04T17:08:39;8.50;;;8.50;;
36221;SDS011;22266;52.340;4.962;2022-11-04T17:11:07;5.75;;;5.00;;
36221;SDS011;22266;52.340;4.962;2022-11-04T17:13:35;5.75;;;5.00;;
36221;SDS011;22266;52.340;4.962;2022-11-04T17:16:02;5.00;;;4.00;;
36221;SDS011;22266;52.340;4.962;2022-11-04T17:18:33;3.50;;;2.00;;
36221;SDS011;22266;52.340;4.962;2022-11-04T17:21:01;2.00;;;2.00;;
36221;SDS011;22266;52.340;4.962;2022-11-04T17:23:31;1.25;;;1.25;;